sensor_id;sensor_type;location;lat;lon;timestamp;temperature;humidity
12426;DHT22;6277;49.824;9.562;2023-03-16T00:00:36;3.20;82.20
12426;DHT22;6277;49.824;9.562;2023-03-16T00:03:01;3.20;82.10
12426;DHT22;6277;49.824;9.562;2023-03-16T00:05:28;3.20;82.00
12426;DHT22;6277;49.824;9.562;2023-03-16T00:07:53;3.20;81.90
12426;DHT22;6277;49.824;9.562;2023-03-16T00:10:19;3.20;81.60
12426;DHT22;6277;49.824;9.562;2023-03-16T00:12:44;3.20;81.40
12426;DHT22;6277;49.824;9.562;2023-03-16T00:15:11;3.20;81.30
12426;DHT22;6277;49.824;9.562;2023-03-16T00:17:37;3.20;81.10
12426;DHT22;6277;49.824;9.562;2023-03-16T00:20:03;3.10;80.80
12426;DHT22;6277;49.824;9.562;2023-03-16T00:22:31;3.10;80.50
12426;DHT22;6277;49.824;9.562;2023-03-16T00:24:56;3.00;80.20
12426;DHT22;6277;49.824;9.562;2023-03-16T00:27:24;3.00;80.10
12426;DHT22;6277;49.824;9.562;2023-03-16T00:29:51;2.90;80.00
12426;DHT22;6277;49.824;9.562;2023-03-16T00:32:23;2.90;80.00
12426;DHT22;6277;49.824;9.562;2023-03-16T00:34:49;2.90;80.10
12426;DHT22;6277;49.824;9.562;2023-03-16T00:37:16;2.80;80.20
12426;DHT22;6277;49.824;9.562;2023-03-16T00:39:43;2.80;80.30
12426;DHT22;6277;49.824;9.562;2023-03-16T00:42:10;2.70;80.30
12426;DHT22;6277;49.824;9.562;2023-03-16T00:44:37;2.70;80.30
12426;DHT22;6277;49.824;9.562;2023-03-16T00:47:04;2.60;80.30
12426;DHT22;6277;49.824;9.562;2023-03-16T00:49:31;2.60;81.00
12426;DHT22;6277;49.824;9.562;2023-03-16T00:52:03;2.50;80.50
12426;DHT22;6277;49.824;9.562;2023-03-16T00:54:29;2.50;80.60
12426;DHT22;6277;49.824;9.562;2023-03-16T00:56:57;2.50;80.80
12426;DHT22;6277;49.824;9.562;2023-03-16T00:59:23;2.50;80.90
12426;DHT22;6277;49.824;9.562;2023-03-16T01:01:51;2.50;80.90
12426;DHT22;6277;49.824;9.562;2023-03-16T01:04:16;2.50;80.80
12426;DHT22;6277;49.824;9.562;2023-03-16T01:06:43;2.50;80.70
12426;DHT22;6277;49.824;9.562;2023-03-16T01:09:09;2.50;80.50
12426;DHT22;6277;49.824;9.562;2023-03-16T01:11:35;2.40;80.20
12426;DHT22;6277;49.824;9.562;2023-03-16T01:14:01;2.40;80.00
12426;DHT22;6277;49.824;9.562;2023-03-16T01:16:26;2.30;79.80
12426;DHT22;6277;49.824;9.562;2023-03-16T01:18:53;2.30;79.80
12426;DHT22;6277;49.824;9.562;2023-03-16T01:21:19;2.30;80.00
12426;DHT22;6277;49.824;9.562;2023-03-16T01:23:46;2.30;80.20
12426;DHT22;6277;49.824;9.562;2023-03-16T01:26:11;2.20;80.50
12426;DHT22;6277;49.824;9.562;2023-03-16T01:28:37;2.20;80.80
12426;DHT22;6277;49.824;9.562;2023-03-16T01:31:08;2.30;81.10
12426;DHT22;6277;49.824;9.562;2023-03-16T01:33:34;2.30;81.20
12426;DHT22;6277;49.824;9.562;2023-03-16T01:36:12;2.30;81.60
12426;DHT22;6277;49.824;9.562;2023-03-16T01:38:39;2.40;81.70
12426;DHT22;6277;49.824;9.562;2023-03-16T01:41:05;2.40;82.10
12426;DHT22;6277;49.824;9.562;2023-03-16T01:43:32;2.50;82.40
12426;DHT22;6277;49.824;9.562;2023-03-16T01:51:28;2.60;82.70
12426;DHT22;6277;49.824;9.562;2023-03-16T01:54:00;2.70;82.70
12426;DHT22;6277;49.824;9.562;2023-03-16T01:56:32;2.80;82.90
12426;DHT22;6277;49.824;9.562;2023-03-16T01:59:00;2.80;82.80
12426;DHT22;6277;49.824;9.562;2023-03-16T02:01:27;2.90;82.90
12426;DHT22;6277;49.824;9.562;2023-03-16T02:04:11;2.90;82.90
12426;DHT22;6277;49.824;9.562;2023-03-16T02:06:39;3.00;82.80
12426;DHT22;6277;49.824;9.562;2023-03-16T02:09:05;3.00;83.00
12426;DHT22;6277;49.824;9.562;2023-03-16T02:11:31;3.10;83.00
12426;DHT22;6277;49.824;9.562;2023-03-16T02:14:03;3.10;83.00
12426;DHT22;6277;49.824;9.562;2023-03-16T02:16:31;3.10;83.00
12426;DHT22;6277;49.824;9.562;2023-03-16T02:18:57;3.20;82.90
12426;DHT22;6277;49.824;9.562;2023-03-16T02:21:31;3.20;82.90
12426;DHT22;6277;49.824;9.562;2023-03-16T02:23:58;3.20;82.80
12426;DHT22;6277;49.824;9.562;2023-03-16T02:26:43;3.20;82.80
12426;DHT22;6277;49.824;9.562;2023-03-16T02:32:15;3.30;82.60
12426;DHT22;6277;49.824;9.562;2023-03-16T02:34:42;3.30;82.70
12426;DHT22;6277;49.824;9.562;2023-03-16T02:37:09;3.30;82.80
12426;DHT22;6277;49.824;9.562;2023-03-16T02:39:34;3.20;82.70
12426;DHT22;6277;49.824;9.562;2023-03-16T02:42:01;3.20;82.70
12426;DHT22;6277;49.824;9.562;2023-03-16T02:44:35;3.20;82.70
12426;DHT22;6277;49.824;9.562;2023-03-16T02:49:49;3.20;82.40
12426;DHT22;6277;49.824;9.562;2023-03-16T02:52:15;3.20;82.50
12426;DHT22;6277;49.824;9.562;2023-03-16T02:54:40;3.20;82.50
12426;DHT22;6277;49.824;9.562;2023-03-16T02:57:06;3.10;82.50
12426;DHT22;6277;49.824;9.562;2023-03-16T02:59:31;3.20;82.60
12426;DHT22;6277;49.824;9.562;2023-03-16T03:01:57;3.10;82.60
12426;DHT22;6277;49.824;9.562;2023-03-16T03:04:22;3.10;82.60
12426;DHT22;6277;49.824;9.562;2023-03-16T03:06:49;3.10;82.60
12426;DHT22;6277;49.824;9.562;2023-03-16T03:09:16;3.10;82.70
12426;DHT22;6277;49.824;9.562;2023-03-16T03:11:42;3.10;82.70
12426;DHT22;6277;49.824;9.562;2023-03-16T03:14:07;3.10;82.70
12426;DHT22;6277;49.824;9.562;2023-03-16T03:16:32;3.10;82.80
12426;DHT22;6277;49.824;9.562;2023-03-16T03:18:58;3.10;82.80
12426;DHT22;6277;49.824;9.562;2023-03-16T03:21:24;3.10;83.50
12426;DHT22;6277;49.824;9.562;2023-03-16T03:23:50;3.10;82.90
12426;DHT22;6277;49.824;9.562;2023-03-16T03:26:16;3.20;82.90
12426;DHT22;6277;49.824;9.562;2023-03-16T03:28:43;3.20;82.90
12426;DHT22;6277;49.824;9.562;2023-03-16T03:31:17;3.20;82.90
12426;DHT22;6277;49.824;9.562;2023-03-16T03:33:43;3.20;82.90
12426;DHT22;6277;49.824;9.562;2023-03-16T03:36:09;3.20;82.90
12426;DHT22;6277;49.824;9.562;2023-03-16T03:38:36;3.20;83.00
12426;DHT22;6277;49.824;9.562;2023-03-16T03:41:02;3.30;83.00
12426;DHT22;6277;49.824;9.562;2023-03-16T03:43:28;3.30;83.10
12426;DHT22;6277;49.824;9.562;2023-03-16T03:45:55;3.30;83.00
12426;DHT22;6277;49.824;9.562;2023-03-16T03:48:22;3.30;83.00
12426;DHT22;6277;49.824;9.562;2023-03-16T03:50:48;3.30;83.00
12426;DHT22;6277;49.824;9.562;2023-03-16T03:53:13;3.30;83.00
12426;DHT22;6277;49.824;9.562;2023-03-16T03:55:39;3.30;83.00
12426;DHT22;6277;49.824;9.562;2023-03-16T03:58:04;3.30;82.90
12426;DHT22;6277;49.824;9.562;2023-03-16T04:00:30;3.30;83.00
12426;DHT22;6277;49.824;9.562;2023-03-16T04:02:56;3.30;83.00
12426;DHT22;6277;49.824;9.562;2023-03-16T04:05:21;3.30;83.00
12426;DHT22;6277;49.824;9.562;2023-03-16T04:07:47;3.30;83.00
12426;DHT22;6277;49.824;9.562;2023-03-16T04:10:13;3.30;83.10
12426;DHT22;6277;49.824;9.562;2023-03-16T04:12:39;3.40;83.20
12426;DHT22;6277;49.824;9.562;2023-03-16T04:15:05;3.40;83.20
12426;DHT22;6277;49.824;9.562;2023-03-16T04:17:31;3.40;83.30
12426;DHT22;6277;49.824;9.562;2023-03-16T04:19:58;3.40;83.30
12426;DHT22;6277;49.824;9.562;2023-03-16T04:22:24;3.40;83.30
12426;DHT22;6277;49.824;9.562;2023-03-16T04:24:49;3.40;83.30
12426;DHT22;6277;49.824;9.562;2023-03-16T04:27:16;3.50;83.40
12426;DHT22;6277;49.824;9.562;2023-03-16T04:29:42;3.50;83.20
12426;DHT22;6277;49.824;9.562;2023-03-16T04:32:08;3.50;83.10
12426;DHT22;6277;49.824;9.562;2023-03-16T04:34:33;3.40;83.10
12426;DHT22;6277;49.824;9.562;2023-03-16T04:36:59;3.40;83.10
12426;DHT22;6277;49.824;9.562;2023-03-16T04:39:24;3.40;83.00
12426;DHT22;6277;49.824;9.562;2023-03-16T04:41:50;3.40;83.00
12426;DHT22;6277;49.824;9.562;2023-03-16T04:44:16;3.40;83.00
12426;DHT22;6277;49.824;9.562;2023-03-16T04:46:41;3.40;83.10
12426;DHT22;6277;49.824;9.562;2023-03-16T04:49:07;3.40;83.10
12426;DHT22;6277;49.824;9.562;2023-03-16T04:51:34;3.40;83.00
12426;DHT22;6277;49.824;9.562;2023-03-16T04:54:01;3.40;83.10
12426;DHT22;6277;49.824;9.562;2023-03-16T04:56:26;3.40;83.10
12426;DHT22;6277;49.824;9.562;2023-03-16T04:58:52;3.40;83.10
12426;DHT22;6277;49.824;9.562;2023-03-16T05:01:18;3.40;83.10
12426;DHT22;6277;49.824;9.562;2023-03-16T05:03:43;3.40;83.10
12426;DHT22;6277;49.824;9.562;2023-03-16T05:06:10;3.40;83.10
12426;DHT22;6277;49.824;9.562;2023-03-16T05:08:36;3.40;83.10
12426;DHT22;6277;49.824;9.562;2023-03-16T05:11:02;3.40;83.30
12426;DHT22;6277;49.824;9.562;2023-03-16T05:13:27;3.40;83.30
12426;DHT22;6277;49.824;9.562;2023-03-16T05:15:53;3.40;83.20
12426;DHT22;6277;49.824;9.562;2023-03-16T05:18:20;3.40;83.30
12426;DHT22;6277;49.824;9.562;2023-03-16T05:20:49;3.50;83.30
12426;DHT22;6277;49.824;9.562;2023-03-16T05:23:15;3.50;83.20
12426;DHT22;6277;49.824;9.562;2023-03-16T05:25:41;3.50;83.20
12426;DHT22;6277;49.824;9.562;2023-03-16T05:28:07;3.50;83.20
12426;DHT22;6277;49.824;9.562;2023-03-16T05:30:32;3.50;83.20
12426;DHT22;6277;49.824;9.562;2023-03-16T05:32:58;3.50;83.20
12426;DHT22;6277;49.824;9.562;2023-03-16T05:35:23;3.50;83.20
12426;DHT22;6277;49.824;9.562;2023-03-16T05:37:49;3.50;83.20
12426;DHT22;6277;49.824;9.562;2023-03-16T05:40:15;3.50;83.20
12426;DHT22;6277;49.824;9.562;2023-03-16T05:42:48;3.50;83.20
12426;DHT22;6277;49.824;9.562;2023-03-16T05:45:15;3.50;83.10
12426;DHT22;6277;49.824;9.562;2023-03-16T05:47:41;3.50;83.10
12426;DHT22;6277;49.824;9.562;2023-03-16T05:50:09;3.50;83.00
12426;DHT22;6277;49.824;9.562;2023-03-16T05:52:39;3.50;83.10
12426;DHT22;6277;49.824;9.562;2023-03-16T05:55:06;3.50;83.20
12426;DHT22;6277;49.824;9.562;2023-03-16T05:57:32;3.50;83.40
12426;DHT22;6277;49.824;9.562;2023-03-16T05:59:59;3.50;83.40
12426;DHT22;6277;49.824;9.562;2023-03-16T06:02:26;3.50;83.40
12426;DHT22;6277;49.824;9.562;2023-03-16T06:04:51;3.50;83.40
12426;DHT22;6277;49.824;9.562;2023-03-16T06:07:17;3.50;83.40
12426;DHT22;6277;49.824;9.562;2023-03-16T06:09:42;3.50;83.40
12426;DHT22;6277;49.824;9.562;2023-03-16T06:12:08;3.50;83.50
12426;DHT22;6277;49.824;9.562;2023-03-16T06:14:34;3.50;83.50
12426;DHT22;6277;49.824;9.562;2023-03-16T06:17:00;3.50;83.60
12426;DHT22;6277;49.824;9.562;2023-03-16T06:19:25;3.60;83.80
12426;DHT22;6277;49.824;9.562;2023-03-16T06:21:51;3.60;83.90
12426;DHT22;6277;49.824;9.562;2023-03-16T06:24:16;3.60;83.90
12426;DHT22;6277;49.824;9.562;2023-03-16T06:26:42;3.70;84.00
12426;DHT22;6277;49.824;9.562;2023-03-16T06:29:07;3.70;84.00
12426;DHT22;6277;49.824;9.562;2023-03-16T06:31:33;3.70;84.00
12426;DHT22;6277;49.824;9.562;2023-03-16T06:33:59;3.70;84.00
12426;DHT22;6277;49.824;9.562;2023-03-16T06:36:25;3.80;84.00
12426;DHT22;6277;49.824;9.562;2023-03-16T06:38:51;3.80;84.00
12426;DHT22;6277;49.824;9.562;2023-03-16T06:41:17;3.80;84.00
12426;DHT22;6277;49.824;9.562;2023-03-16T06:43:42;3.80;84.00
12426;DHT22;6277;49.824;9.562;2023-03-16T06:46:08;3.90;84.00
12426;DHT22;6277;49.824;9.562;2023-03-16T06:48:34;3.90;84.20
12426;DHT22;6277;49.824;9.562;2023-03-16T06:50:59;3.90;84.20
12426;DHT22;6277;49.824;9.562;2023-03-16T06:53:26;4.00;84.30
12426;DHT22;6277;49.824;9.562;2023-03-16T06:55:51;4.00;84.30
12426;DHT22;6277;49.824;9.562;2023-03-16T06:58:17;4.00;84.30
12426;DHT22;6277;49.824;9.562;2023-03-16T07:00:42;4.10;84.50
12426;DHT22;6277;49.824;9.562;2023-03-16T07:03:08;4.10;84.60
12426;DHT22;6277;49.824;9.562;2023-03-16T07:05:33;4.10;84.70
12426;DHT22;6277;49.824;9.562;2023-03-16T07:07:59;4.20;84.90
12426;DHT22;6277;49.824;9.562;2023-03-16T07:10:25;4.30;85.00
12426;DHT22;6277;49.824;9.562;2023-03-16T07:12:51;4.30;85.10
12426;DHT22;6277;49.824;9.562;2023-03-16T07:15:17;4.40;85.30
12426;DHT22;6277;49.824;9.562;2023-03-16T07:17:43;4.50;85.30
12426;DHT22;6277;49.824;9.562;2023-03-16T07:20:10;4.50;85.20
12426;DHT22;6277;49.824;9.562;2023-03-16T07:22:37;4.60;85.00
12426;DHT22;6277;49.824;9.562;2023-03-16T07:25:04;4.60;85.10
12426;DHT22;6277;49.824;9.562;2023-03-16T07:27:31;4.70;85.30
12426;DHT22;6277;49.824;9.562;2023-03-16T07:29:57;4.80;85.50
12426;DHT22;6277;49.824;9.562;2023-03-16T07:32:24;4.80;85.50
12426;DHT22;6277;49.824;9.562;2023-03-16T07:34:50;4.90;85.70
12426;DHT22;6277;49.824;9.562;2023-03-16T07:37:15;5.00;86.00
12426;DHT22;6277;49.824;9.562;2023-03-16T07:39:41;5.10;86.30
12426;DHT22;6277;49.824;9.562;2023-03-16T07:42:07;5.20;86.20
12426;DHT22;6277;49.824;9.562;2023-03-16T07:44:32;5.30;85.80
12426;DHT22;6277;49.824;9.562;2023-03-16T07:46:58;5.40;85.30
12426;DHT22;6277;49.824;9.562;2023-03-16T07:49:24;5.40;85.10
12426;DHT22;6277;49.824;9.562;2023-03-16T07:51:50;5.40;85.00
12426;DHT22;6277;49.824;9.562;2023-03-16T07:54:15;5.40;85.00
12426;DHT22;6277;49.824;9.562;2023-03-16T07:56:41;5.50;85.10
12426;DHT22;6277;49.824;9.562;2023-03-16T07:59:07;5.50;85.50
12426;DHT22;6277;49.824;9.562;2023-03-16T08:01:33;5.50;85.50
12426;DHT22;6277;49.824;9.562;2023-03-16T08:03:59;5.60;85.20
12426;DHT22;6277;49.824;9.562;2023-03-16T08:06:26;5.60;85.00
12426;DHT22;6277;49.824;9.562;2023-03-16T08:08:52;5.70;84.90
12426;DHT22;6277;49.824;9.562;2023-03-16T08:11:17;5.70;84.90
12426;DHT22;6277;49.824;9.562;2023-03-16T08:13:51;5.70;84.80
12426;DHT22;6277;49.824;9.562;2023-03-16T08:16:22;5.70;84.70
12426;DHT22;6277;49.824;9.562;2023-03-16T08:18:48;5.80;84.90
12426;DHT22;6277;49.824;9.562;2023-03-16T08:21:15;5.80;85.30
12426;DHT22;6277;49.824;9.562;2023-03-16T08:23:42;5.90;85.40
12426;DHT22;6277;49.824;9.562;2023-03-16T08:26:14;5.90;85.50
12426;DHT22;6277;49.824;9.562;2023-03-16T08:28:41;6.00;85.60
12426;DHT22;6277;49.824;9.562;2023-03-16T08:31:07;6.00;85.70
12426;DHT22;6277;49.824;9.562;2023-03-16T08:33:33;6.10;85.80
12426;DHT22;6277;49.824;9.562;2023-03-16T08:35:59;6.20;85.70
12426;DHT22;6277;49.824;9.562;2023-03-16T08:38:24;6.20;85.70
12426;DHT22;6277;49.824;9.562;2023-03-16T08:40:50;6.30;85.70
12426;DHT22;6277;49.824;9.562;2023-03-16T08:43:17;6.30;85.30
12426;DHT22;6277;49.824;9.562;2023-03-16T08:45:47;6.30;85.00
12426;DHT22;6277;49.824;9.562;2023-03-16T08:48:13;6.40;84.30
12426;DHT22;6277;49.824;9.562;2023-03-16T08:50:42;6.40;84.80
12426;DHT22;6277;49.824;9.562;2023-03-16T08:53:09;6.40;84.80
12426;DHT22;6277;49.824;9.562;2023-03-16T08:55:35;6.50;85.50
12426;DHT22;6277;49.824;9.562;2023-03-16T08:58:01;6.50;85.80
12426;DHT22;6277;49.824;9.562;2023-03-16T09:00:27;6.60;85.90
12426;DHT22;6277;49.824;9.562;2023-03-16T09:02:53;6.70;86.10
12426;DHT22;6277;49.824;9.562;2023-03-16T09:05:20;6.80;86.10
12426;DHT22;6277;49.824;9.562;2023-03-16T09:07:45;6.80;86.00
12426;DHT22;6277;49.824;9.562;2023-03-16T09:10:12;6.90;86.00
12426;DHT22;6277;49.824;9.562;2023-03-16T09:12:41;7.00;86.10
12426;DHT22;6277;49.824;9.562;2023-03-16T09:15:08;7.10;86.40
12426;DHT22;6277;49.824;9.562;2023-03-16T09:17:35;7.20;86.60
12426;DHT22;6277;49.824;9.562;2023-03-16T09:20:01;7.30;86.90
12426;DHT22;6277;49.824;9.562;2023-03-16T09:22:27;7.40;87.00
12426;DHT22;6277;49.824;9.562;2023-03-16T09:24:53;7.50;86.80
12426;DHT22;6277;49.824;9.562;2023-03-16T09:27:19;7.60;86.80
12426;DHT22;6277;49.824;9.562;2023-03-16T09:29:45;7.70;86.90
12426;DHT22;6277;49.824;9.562;2023-03-16T09:32:11;7.90;87.00
12426;DHT22;6277;49.824;9.562;2023-03-16T09:34:37;8.00;86.80
12426;DHT22;6277;49.824;9.562;2023-03-16T09:37:03;8.10;87.50
12426;DHT22;6277;49.824;9.562;2023-03-16T09:39:29;8.30;87.70
12426;DHT22;6277;49.824;9.562;2023-03-16T09:42:46;8.40;87.40
12426;DHT22;6277;49.824;9.562;2023-03-16T09:45:54;8.50;85.70
12426;DHT22;6277;49.824;9.562;2023-03-16T09:48:02;8.60;83.90
12426;DHT22;6277;49.824;9.562;2023-03-16T09:50:32;8.70;84.50
12426;DHT22;6277;49.824;9.562;2023-03-16T09:53:07;8.70;83.50
12426;DHT22;6277;49.824;9.562;2023-03-16T09:55:37;8.60;83.50
12426;DHT22;6277;49.824;9.562;2023-03-16T09:58:09;8.60;83.80
12426;DHT22;6277;49.824;9.562;2023-03-16T10:00:44;8.50;82.80
12426;DHT22;6277;49.824;9.562;2023-03-16T10:03:29;8.50;83.00
12426;DHT22;6277;49.824;9.562;2023-03-16T10:06:01;8.50;82.20
12426;DHT22;6277;49.824;9.562;2023-03-16T10:08:43;8.50;83.80
12426;DHT22;6277;49.824;9.562;2023-03-16T10:11:36;8.50;82.90
12426;DHT22;6277;49.824;9.562;2023-03-16T10:14:18;8.50;82.60
12426;DHT22;6277;49.824;9.562;2023-03-16T10:16:49;8.50;83.10
12426;DHT22;6277;49.824;9.562;2023-03-16T10:19:32;8.60;84.20
12426;DHT22;6277;49.824;9.562;2023-03-16T10:21:59;8.60;83.70
12426;DHT22;6277;49.824;9.562;2023-03-16T10:24:49;8.70;84.10
12426;DHT22;6277;49.824;9.562;2023-03-16T10:27:26;8.70;84.00
12426;DHT22;6277;49.824;9.562;2023-03-16T10:29:53;8.80;83.90
12426;DHT22;6277;49.824;9.562;2023-03-16T10:32:18;8.90;85.30
12426;DHT22;6277;49.824;9.562;2023-03-16T10:35:01;9.00;85.20
12426;DHT22;6277;49.824;9.562;2023-03-16T10:37:29;9.10;83.60
12426;DHT22;6277;49.824;9.562;2023-03-16T10:39:55;9.20;84.80
12426;DHT22;6277;49.824;9.562;2023-03-16T10:42:21;9.20;84.50
12426;DHT22;6277;49.824;9.562;2023-03-16T10:44:48;9.30;84.40
12426;DHT22;6277;49.824;9.562;2023-03-16T10:47:27;9.30;83.90
12426;DHT22;6277;49.824;9.562;2023-03-16T10:49:53;9.40;82.60
12426;DHT22;6277;49.824;9.562;2023-03-16T10:52:33;9.40;83.90
12426;DHT22;6277;49.824;9.562;2023-03-16T10:55:05;9.50;83.80
12426;DHT22;6277;49.824;9.562;2023-03-16T10:57:36;9.50;83.40
12426;DHT22;6277;49.824;9.562;2023-03-16T11:00:20;9.60;83.50
12426;DHT22;6277;49.824;9.562;2023-03-16T11:02:47;9.70;82.20
12426;DHT22;6277;49.824;9.562;2023-03-16T11:05:28;9.70;83.60
12426;DHT22;6277;49.824;9.562;2023-03-16T11:08:17;9.80;82.50
12426;DHT22;6277;49.824;9.562;2023-03-16T11:10:52;10.00;83.00
12426;DHT22;6277;49.824;9.562;2023-03-16T11:13:19;10.10;84.50
12426;DHT22;6277;49.824;9.562;2023-03-16T11:15:59;10.30;85.10
12426;DHT22;6277;49.824;9.562;2023-03-16T11:18:42;10.40;85.30
12426;DHT22;6277;49.824;9.562;2023-03-16T11:21:22;10.60;83.40
12426;DHT22;6277;49.824;9.562;2023-03-16T11:23:54;10.80;83.80
12426;DHT22;6277;49.824;9.562;2023-03-16T11:26:28;11.00;84.20
12426;DHT22;6277;49.824;9.562;2023-03-16T11:29:09;11.20;83.70
12426;DHT22;6277;49.824;9.562;2023-03-16T11:34:15;11.50;83.40
12426;DHT22;6277;49.824;9.562;2023-03-16T11:36:55;11.70;82.60
12426;DHT22;6277;49.824;9.562;2023-03-16T11:42:12;12.00;82.70
12426;DHT22;6277;49.824;9.562;2023-03-16T11:50:27;12.60;80.30
12426;DHT22;6277;49.824;9.562;2023-03-16T11:56:00;12.90;81.10
12426;DHT22;6277;49.824;9.562;2023-03-16T12:01:17;13.20;79.20
12426;DHT22;6277;49.824;9.562;2023-03-16T12:04:21;13.30;78.90
12426;DHT22;6277;49.824;9.562;2023-03-16T12:17:39;13.60;78.20
12426;DHT22;6277;49.824;9.562;2023-03-16T12:20:19;13.60;79.40
12426;DHT22;6277;49.824;9.562;2023-03-16T12:25:21;13.80;78.40
12426;DHT22;6277;49.824;9.562;2023-03-16T12:27:51;13.90;77.60
12426;DHT22;6277;49.824;9.562;2023-03-16T12:30:27;13.90;77.60
12426;DHT22;6277;49.824;9.562;2023-03-16T12:32:59;13.90;78.10
12426;DHT22;6277;49.824;9.562;2023-03-16T12:35:37;14.00;78.20
12426;DHT22;6277;49.824;9.562;2023-03-16T12:41:07;14.10;77.00
12426;DHT22;6277;49.824;9.562;2023-03-16T12:44:55;14.10;75.10
12426;DHT22;6277;49.824;9.562;2023-03-16T12:49:52;14.00;74.40
12426;DHT22;6277;49.824;9.562;2023-03-16T12:52:18;13.90;76.60
12426;DHT22;6277;49.824;9.562;2023-03-16T12:54:52;13.90;76.70
12426;DHT22;6277;49.824;9.562;2023-03-16T12:57:23;13.90;75.00
12426;DHT22;6277;49.824;9.562;2023-03-16T12:59:55;13.90;75.70
12426;DHT22;6277;49.824;9.562;2023-03-16T13:02:33;14.00;76.20
12426;DHT22;6277;49.824;9.562;2023-03-16T13:05:13;14.10;75.90
12426;DHT22;6277;49.824;9.562;2023-03-16T13:07:48;14.20;75.70
12426;DHT22;6277;49.824;9.562;2023-03-16T13:10:15;14.30;76.10
12426;DHT22;6277;49.824;9.562;2023-03-16T13:12:42;14.40;76.30
12426;DHT22;6277;49.824;9.562;2023-03-16T13:20:34;14.50;75.10
12426;DHT22;6277;49.824;9.562;2023-03-16T13:23:45;14.50;74.70
12426;DHT22;6277;49.824;9.562;2023-03-16T13:28:41;14.50;75.30
12426;DHT22;6277;49.824;9.562;2023-03-16T13:31:34;14.60;74.90
12426;DHT22;6277;49.824;9.562;2023-03-16T13:34:01;14.70;72.70
12426;DHT22;6277;49.824;9.562;2023-03-16T13:36:28;14.70;74.80
12426;DHT22;6277;49.824;9.562;2023-03-16T13:39:02;14.80;74.60
12426;DHT22;6277;49.824;9.562;2023-03-16T13:41:28;14.90;74.60
12426;DHT22;6277;49.824;9.562;2023-03-16T13:43:54;15.00;74.90
12426;DHT22;6277;49.824;9.562;2023-03-16T13:46:26;15.20;74.90
12426;DHT22;6277;49.824;9.562;2023-03-16T13:48:52;15.30;73.90
12426;DHT22;6277;49.824;9.562;2023-03-16T13:51:19;15.30;74.40
12426;DHT22;6277;49.824;9.562;2023-03-16T13:53:45;15.40;74.30
12426;DHT22;6277;49.824;9.562;2023-03-16T13:56:14;15.60;73.80
12426;DHT22;6277;49.824;9.562;2023-03-16T13:58:44;15.70;74.00
12426;DHT22;6277;49.824;9.562;2023-03-16T14:01:31;15.80;73.30
12426;DHT22;6277;49.824;9.562;2023-03-16T14:04:00;15.90;71.30
12426;DHT22;6277;49.824;9.562;2023-03-16T14:06:33;16.00;72.90
12426;DHT22;6277;49.824;9.562;2023-03-16T14:09:29;16.10;73.00
12426;DHT22;6277;49.824;9.562;2023-03-16T14:11:56;16.20;70.40
12426;DHT22;6277;49.824;9.562;2023-03-16T14:14:26;16.30;72.30
12426;DHT22;6277;49.824;9.562;2023-03-16T14:16:52;16.30;71.40
12426;DHT22;6277;49.824;9.562;2023-03-16T14:19:23;16.30;71.90
12426;DHT22;6277;49.824;9.562;2023-03-16T14:22:00;16.30;70.70
12426;DHT22;6277;49.824;9.562;2023-03-16T14:24:37;16.40;71.00
12426;DHT22;6277;49.824;9.562;2023-03-16T14:27:24;16.50;70.50
12426;DHT22;6277;49.824;9.562;2023-03-16T14:29:53;16.60;70.00
12426;DHT22;6277;49.824;9.562;2023-03-16T14:32:23;16.70;71.20
12426;DHT22;6277;49.824;9.562;2023-03-16T14:34:58;16.80;71.00
12426;DHT22;6277;49.824;9.562;2023-03-16T14:37:34;16.90;71.30
12426;DHT22;6277;49.824;9.562;2023-03-16T14:40:02;16.90;69.30
12426;DHT22;6277;49.824;9.562;2023-03-16T14:42:30;17.00;70.00
12426;DHT22;6277;49.824;9.562;2023-03-16T14:45:11;17.00;69.80
12426;DHT22;6277;49.824;9.562;2023-03-16T14:47:41;17.00;67.90
12426;DHT22;6277;49.824;9.562;2023-03-16T14:50:16;17.00;68.80
12426;DHT22;6277;49.824;9.562;2023-03-16T14:52:46;17.00;67.90
12426;DHT22;6277;49.824;9.562;2023-03-16T14:55:15;17.00;69.20
12426;DHT22;6277;49.824;9.562;2023-03-16T14:57:41;16.90;68.20
12426;DHT22;6277;49.824;9.562;2023-03-16T15:00:09;16.90;68.60
12426;DHT22;6277;49.824;9.562;2023-03-16T15:02:37;16.90;68.50
12426;DHT22;6277;49.824;9.562;2023-03-16T15:05:03;16.90;69.10
12426;DHT22;6277;49.824;9.562;2023-03-16T15:07:37;16.90;68.80
12426;DHT22;6277;49.824;9.562;2023-03-16T15:10:20;16.90;68.30
12426;DHT22;6277;49.824;9.562;2023-03-16T15:12:46;16.90;66.90
12426;DHT22;6277;49.824;9.562;2023-03-16T15:15:21;17.00;68.40
12426;DHT22;6277;49.824;9.562;2023-03-16T15:17:49;16.90;67.50
12426;DHT22;6277;49.824;9.562;2023-03-16T15:22:43;16.80;66.80
12426;DHT22;6277;49.824;9.562;2023-03-16T15:27:45;16.70;65.20
12426;DHT22;6277;49.824;9.562;2023-03-16T15:30:17;16.60;66.60
12426;DHT22;6277;49.824;9.562;2023-03-16T15:32:43;16.60;65.40
12426;DHT22;6277;49.824;9.562;2023-03-16T15:35:09;16.50;66.30
12426;DHT22;6277;49.824;9.562;2023-03-16T15:37:35;16.40;66.50
12426;DHT22;6277;49.824;9.562;2023-03-16T15:40:09;16.30;66.10
12426;DHT22;6277;49.824;9.562;2023-03-16T15:42:35;16.30;66.10
12426;DHT22;6277;49.824;9.562;2023-03-16T15:45:00;16.20;66.10
12426;DHT22;6277;49.824;9.562;2023-03-16T15:47:26;16.10;66.10
12426;DHT22;6277;49.824;9.562;2023-03-16T15:49:51;16.00;66.40
12426;DHT22;6277;49.824;9.562;2023-03-16T15:52:24;16.00;66.20
12426;DHT22;6277;49.824;9.562;2023-03-16T15:54:51;15.90;65.40
12426;DHT22;6277;49.824;9.562;2023-03-16T15:57:17;15.90;66.30
12426;DHT22;6277;49.824;9.562;2023-03-16T15:59:42;15.90;66.40
12426;DHT22;6277;49.824;9.562;2023-03-16T16:02:30;15.90;66.40
12426;DHT22;6277;49.824;9.562;2023-03-16T16:04:56;15.90;64.90
12426;DHT22;6277;49.824;9.562;2023-03-16T16:07:22;15.90;66.30
12426;DHT22;6277;49.824;9.562;2023-03-16T16:09:48;15.90;66.40
12426;DHT22;6277;49.824;9.562;2023-03-16T16:12:14;15.90;66.20
12426;DHT22;6277;49.824;9.562;2023-03-16T16:14:41;15.90;66.00
12426;DHT22;6277;49.824;9.562;2023-03-16T16:17:11;15.80;66.60
12426;DHT22;6277;49.824;9.562;2023-03-16T16:19:38;15.80;65.20
12426;DHT22;6277;49.824;9.562;2023-03-16T16:22:03;15.80;65.80
12426;DHT22;6277;49.824;9.562;2023-03-16T16:24:30;15.70;65.70
12426;DHT22;6277;49.824;9.562;2023-03-16T16:26:55;15.70;65.60
12426;DHT22;6277;49.824;9.562;2023-03-16T16:29:28;15.60;65.30
12426;DHT22;6277;49.824;9.562;2023-03-16T16:31:56;15.50;64.00
12426;DHT22;6277;49.824;9.562;2023-03-16T16:34:23;15.50;64.70
12426;DHT22;6277;49.824;9.562;2023-03-16T16:36:49;15.40;64.50
12426;DHT22;6277;49.824;9.562;2023-03-16T16:39:15;15.30;64.60
12426;DHT22;6277;49.824;9.562;2023-03-16T16:41:42;15.20;64.40
12426;DHT22;6277;49.824;9.562;2023-03-16T16:44:25;15.10;64.40
12426;DHT22;6277;49.824;9.562;2023-03-16T16:46:52;14.90;63.20
12426;DHT22;6277;49.824;9.562;2023-03-16T16:49:22;14.80;64.30
12426;DHT22;6277;49.824;9.562;2023-03-16T16:51:49;14.70;64.00
12426;DHT22;6277;49.824;9.562;2023-03-16T16:54:20;14.60;64.40
12426;DHT22;6277;49.824;9.562;2023-03-16T16:56:48;14.40;63.70
12426;DHT22;6277;49.824;9.562;2023-03-16T16:59:38;14.30;64.20
12426;DHT22;6277;49.824;9.562;2023-03-16T17:02:22;14.20;63.80
12426;DHT22;6277;49.824;9.562;2023-03-16T17:04:47;14.00;63.30
12426;DHT22;6277;49.824;9.562;2023-03-16T17:07:15;13.90;64.50
12426;DHT22;6277;49.824;9.562;2023-03-16T17:09:40;13.80;64.40